createdAt,value
2023-05-25T00:00:10.149Z,-56.15849
2023-05-25T00:05:11.106Z,-56.7758
2023-05-25T00:10:12.150Z,-56.71943
2023-05-25T00:15:13.048Z,-56.24767
2023-05-25T00:20:13.977Z,-56.94225
2023-05-25T00:25:14.915Z,-57.16283
2023-05-25T00:30:15.776Z,-56.69561
2023-05-25T00:35:16.640Z,-56.84176
2023-05-25T00:40:17.608Z,-57.2076
2023-05-25T00:45:18.541Z,-56.68317
2023-05-25T00:50:19.477Z,-56.7916
2023-05-25T00:55:20.406Z,-56.71457
2023-05-25T01:00:21.364Z,-56.66849
2023-05-25T01:05:22.254Z,-56.63752
2023-05-25T01:10:23.143Z,-56.55853
2023-05-25T01:15:24.099Z,-56.24872
2023-05-25T01:20:25.034Z,-56.71382
2023-05-25T01:25:25.980Z,-56.79605
2023-05-25T01:30:26.858Z,-57.12277
2023-05-25T01:35:27.747Z,-57.46812
2023-05-25T01:40:28.650Z,-57.4232
2023-05-25T01:45:29.581Z,-57.72658
2023-05-25T01:50:30.509Z,-57.51416
2023-05-25T01:55:31.457Z,-57.3464
2023-05-25T02:00:32.352Z,-57.23177
2023-05-25T02:05:33.291Z,-56.7576
2023-05-25T02:10:34.210Z,-57.0441
2023-05-25T02:15:35.158Z,-56.68863
2023-05-25T02:20:36.296Z,-56.75067
2023-05-25T02:25:37.383Z,-56.74406
2023-05-25T02:30:38.313Z,-56.91703
2023-05-25T02:35:39.226Z,-57.33086
2023-05-25T02:40:40.233Z,-56.79672
2023-05-25T02:45:41.275Z,-57.10654
2023-05-25T02:50:42.243Z,-56.84162
2023-05-25T02:55:43.491Z,-57.17645
2023-05-25T03:00:44.719Z,-57.30499
2023-05-25T03:05:45.810Z,-57.66404
2023-05-25T03:10:46.914Z,-57.91215
2023-05-25T03:15:47.867Z,-57.92074
2023-05-25T03:20:48.798Z,-57.93822
2023-05-25T03:25:49.733Z,-57.7975
2023-05-25T03:30:50.639Z,-58.08619
2023-05-25T03:35:51.543Z,-58.09558
2023-05-25T03:40:52.703Z,-58.32588
2023-05-25T03:45:53.633Z,-58.81419
2023-05-25T03:50:54.539Z,-59.00165
2023-05-25T03:55:55.476Z,-58.89598
2023-05-25T04:00:56.482Z,-58.99431
2023-05-25T04:05:57.422Z,-59.19789
2023-05-25T04:10:58.339Z,-59.651
2023-05-25T04:15:59.381Z,-59.72157
2023-05-25T04:21:00.356Z,-60.016
2023-05-25T04:26:01.337Z,-60.21632
2023-05-25T04:31:02.208Z,-60.55693
2023-05-25T04:36:03.222Z,-61.00872
2023-05-25T04:41:04.240Z,-61.06418
2023-05-25T04:46:05.242Z,-61.11975
2023-05-25T04:51:06.138Z,-61.3572
2023-05-25T04:56:07.043Z,-61.37869
2023-05-25T05:01:08.022Z,-60.71986
2023-05-25T05:06:08.936Z,-60.91297
2023-05-25T05:11:09.884Z,-61.21645
2023-05-25T05:16:10.876Z,-61.6076
2023-05-25T05:21:11.803Z,-61.35185
2023-05-25T05:26:12.786Z,-61.01688
2023-05-25T05:31:13.693Z,-60.83615
2023-05-25T05:36:15.000Z,-61.46736
2023-05-25T05:41:15.902Z,-61.54047
2023-05-25T05:46:16.838Z,-62.0289
2023-05-25T05:51:17.784Z,-62.57618
2023-05-25T05:56:18.709Z,-62.78873
2023-05-25T06:01:19.616Z,-63.13217
2023-05-25T06:06:20.496Z,-63.23819
2023-05-25T06:11:21.413Z,-63.69754
2023-05-25T06:16:22.427Z,-64.1411
2023-05-25T06:21:23.336Z,-64.5083
2023-05-25T06:26:24.327Z,-64.53785
2023-05-25T06:31:25.244Z,-64.80496
2023-05-25T06:36:27.497Z,-65.13619
2023-05-25T06:41:28.470Z,-65.08741
2023-05-25T06:46:29.391Z,-65.34536
2023-05-25T06:51:30.387Z,-65.21241
2023-05-25T06:56:31.308Z,-65.07885
2023-05-25T07:01:32.250Z,-65.01203
2023-05-25T07:06:33.236Z,-64.85813
2023-05-25T07:11:34.209Z,-64.67914
2023-05-25T07:16:35.332Z,-64.90472
2023-05-25T07:21:36.573Z,-65.02517
2023-05-25T07:26:37.513Z,-65.08413
2023-05-25T07:31:38.590Z,-65.23014
2023-05-25T07:36:39.508Z,-65.08004
2023-05-25T07:41:40.461Z,-65.38529
2023-05-25T07:46:41.453Z,-65.72768
2023-05-25T07:51:42.446Z,-65.26326
2023-05-25T07:56:43.381Z,-65.80835
2023-05-25T08:01:44.333Z,-66.11639
2023-05-25T08:06:45.294Z,-66.05224
2023-05-25T08:11:46.251Z,-66.00127
2023-05-25T08:16:47.211Z,-65.83471
2023-05-25T08:21:48.200Z,-66.06222
2023-05-25T08:26:54.927Z,-66.13997
2023-05-25T08:31:56.212Z,-66.44908
2023-05-25T08:36:57.117Z,-66.47534
2023-05-25T08:41:58.062Z,-66.60814
2023-05-25T08:46:58.946Z,-66.28319
2023-05-25T08:51:59.881Z,-65.88594
2023-05-25T08:57:00.835Z,-66.02255
2023-05-25T09:02:01.975Z,-65.97688
2023-05-25T09:07:10.304Z,-66.07515
2023-05-25T09:12:12.002Z,-66.57425
2023-05-25T09:17:12.911Z,-66.99939
2023-05-25T09:22:16.392Z,-67.39096
2023-05-25T09:27:18.070Z,-67.60958
2023-05-25T09:32:19.221Z,-67.59166
2023-05-25T09:37:20.520Z,-67.12648
2023-05-25T09:42:21.595Z,-66.88258
2023-05-25T09:47:22.595Z,-66.84464
2023-05-25T09:52:23.564Z,-66.99475
2023-05-25T09:57:24.457Z,-67.03219
2023-05-25T10:02:25.360Z,-67.0692
2023-05-25T10:07:26.302Z,-67.29788
2023-05-25T10:12:27.207Z,-67.54676
2023-05-25T10:17:28.196Z,-67.46647
2023-05-25T10:22:29.153Z,-67.30746
2023-05-25T10:27:30.055Z,-67.28256
2023-05-25T10:32:30.999Z,-67.40049
2023-05-25T10:37:32.024Z,-67.56481
2023-05-25T10:42:32.959Z,-68.01054
2023-05-25T10:47:33.858Z,-67.63858
2023-05-25T10:52:34.760Z,-67.23702
2023-05-25T10:57:35.665Z,-66.74466
2023-05-25T11:02:36.803Z,-66.7332
2023-05-25T11:07:37.764Z,-66.84685
2023-05-25T11:12:38.651Z,-67.20119
2023-05-25T11:17:39.602Z,-66.68973
2023-05-25T11:22:40.564Z,-66.20011
2023-05-25T11:27:41.460Z,-66.3609
2023-05-25T11:32:42.390Z,-66.66516
2023-05-25T11:37:43.276Z,-66.73466
2023-05-25T11:42:44.222Z,-66.65437
2023-05-25T11:47:45.299Z,-66.21861
2023-05-25T11:52:46.244Z,-65.66546
2023-05-25T11:57:47.145Z,-66.34609
2023-05-25T12:02:48.198Z,-66.16442
2023-05-25T12:07:49.095Z,-65.63133
2023-05-25T12:12:49.969Z,-65.50689
2023-05-25T12:17:50.926Z,-65.51061
2023-05-25T12:22:51.950Z,-65.64312
2023-05-25T12:27:52.825Z,-65.34156
2023-05-25T12:32:53.823Z,-64.59186
2023-05-25T12:37:54.739Z,-64.96155
2023-05-25T12:42:55.645Z,-65.1012
2023-05-25T12:47:56.564Z,-64.65526
2023-05-25T12:52:57.511Z,-64.16196
2023-05-25T12:57:58.403Z,-64.17271
2023-05-25T13:02:59.446Z,-64.60042
2023-05-25T13:08:00.417Z,-64.35203
2023-05-25T13:13:01.426Z,-64.48048
2023-05-25T13:18:02.435Z,-63.92088
2023-05-25T13:23:03.404Z,-63.11989
2023-05-25T13:28:04.384Z,-62.91927
2023-05-25T13:33:05.326Z,-62.90459
2023-05-25T13:38:06.232Z,-62.94641
2023-05-25T13:43:07.190Z,-63.35296
2023-05-25T13:48:08.192Z,-63.07081
2023-05-25T13:53:09.213Z,-62.5897
2023-05-25T13:58:10.139Z,-62.37687
2023-05-25T14:03:11.172Z,-61.81703
2023-05-25T14:08:12.154Z,-61.81188
2023-05-25T14:13:13.189Z,-61.91919
2023-05-25T14:18:14.132Z,-61.77957
2023-05-25T14:23:16.671Z,-61.17806
2023-05-25T14:28:19.222Z,-61.00023
2023-05-25T14:33:20.214Z,-61.05274
2023-05-25T14:38:21.108Z,-60.31906
2023-05-25T14:43:22.056Z,-60.66169
2023-05-25T14:48:23.198Z,-60.67632
2023-05-25T14:53:24.245Z,-60.49888
2023-05-25T14:58:25.292Z,-60.62868
2023-05-25T15:03:26.334Z,-60.73793
2023-05-25T15:08:27.342Z,-60.39922
2023-05-25T15:13:28.304Z,-59.99836
2023-05-25T15:18:29.260Z,-59.44174
2023-05-25T15:23:30.150Z,-59.17352
2023-05-25T15:28:31.009Z,-59.54405
2023-05-25T15:33:48.516Z,-59.41943
2023-05-25T15:38:52.850Z,-59.28387
2023-05-25T15:43:53.837Z,-58.79997
2023-05-25T15:48:54.794Z,-59.15597
2023-05-25T15:53:55.753Z,-58.5882
2023-05-25T15:58:56.664Z,-59.13524
2023-05-25T16:03:57.969Z,-59.01412
2023-05-25T16:08:58.983Z,-58.60275
2023-05-25T16:13:59.949Z,-58.81926
2023-05-25T16:19:00.960Z,-58.96462
2023-05-25T16:24:01.990Z,-58.68457
2023-05-25T16:29:02.851Z,-58.38243
2023-05-25T16:34:03.893Z,-58.52878
2023-05-25T16:39:04.754Z,-58.2805
2023-05-25T16:44:05.707Z,-58.31424
2023-05-25T16:49:06.649Z,-57.82206
2023-05-25T16:54:07.543Z,-57.65427
2023-05-25T16:59:08.482Z,-57.46643
2023-05-25T17:04:09.473Z,-57.07276
2023-05-25T17:09:10.371Z,-57.07085
2023-05-25T17:14:11.281Z,-57.35793
2023-05-25T17:19:12.250Z,-57.66801
2023-05-25T17:24:13.198Z,-57.6001
2023-05-25T17:29:14.081Z,-57.64717
2023-05-25T17:34:15.352Z,-57.74981
2023-05-25T17:39:16.268Z,-58.30601
2023-05-25T17:44:17.143Z,-58.33217
2023-05-25T17:49:18.035Z,-59.09924
2023-05-25T17:54:18.972Z,-59.03682
2023-05-25T17:59:19.911Z,-59.5292
2023-05-25T18:04:20.806Z,-59.68704
2023-05-25T18:09:21.765Z,-59.89291
2023-05-25T18:14:22.712Z,-60.02213
2023-05-25T18:19:23.613Z,-60.23445
2023-05-25T18:24:24.490Z,-60.09515
2023-05-25T18:29:25.403Z,-60.95014
2023-05-25T18:34:26.359Z,-61.11189
2023-05-25T18:39:27.277Z,-61.23645
2023-05-25T18:44:28.174Z,-61.33534
2023-05-25T18:49:29.043Z,-61.71206
2023-05-25T18:54:29.976Z,-61.79865
2023-05-25T18:59:30.882Z,-62.11261
2023-05-25T19:04:31.902Z,-62.4204
2023-05-25T19:09:32.816Z,-63.13243
2023-05-25T19:14:33.702Z,-63.57875
2023-05-25T19:19:34.724Z,-63.43498
2023-05-25T19:24:35.595Z,-63.95806
2023-05-25T19:29:36.613Z,-64.31504
2023-05-25T19:34:37.877Z,-64.87612
2023-05-25T19:39:38.746Z,-65.06039
2023-05-25T19:44:39.657Z,-64.87621
2023-05-25T19:49:40.571Z,-64.86626
2023-05-25T19:54:41.476Z,-65.07677
2023-05-25T19:59:42.363Z,-65.06058
2023-05-25T20:04:43.296Z,-65.40628
2023-05-25T20:09:44.212Z,-65.60716
2023-05-25T20:14:45.097Z,-65.89946
2023-05-25T20:19:45.980Z,-66.25771
2023-05-25T20:24:46.885Z,-66.77622
2023-05-25T20:29:47.779Z,-67.41847
2023-05-25T20:34:48.643Z,-67.40712
2023-05-25T20:39:49.558Z,-67.55295
2023-05-25T20:44:50.479Z,-67.92656
2023-05-25T20:49:51.401Z,-67.99993
2023-05-25T20:54:52.322Z,-68.38616
2023-05-25T20:59:53.240Z,-68.32868
2023-05-25T21:04:54.196Z,-68.45147
2023-05-25T21:09:55.215Z,-68.44335
2023-05-25T21:14:56.130Z,-68.36105
2023-05-25T21:19:57.079Z,-68.50499
2023-05-25T21:24:58.004Z,-68.73478
2023-05-25T21:29:58.881Z,-68.16037
2023-05-25T21:34:59.820Z,-68.59959
2023-05-25T21:40:00.801Z,-68.96242
2023-05-25T21:45:01.743Z,-68.97645
2023-05-25T21:50:02.636Z,-69.04212
2023-05-25T21:55:03.558Z,-69.22402
2023-05-25T22:00:04.696Z,-69.93323
2023-05-25T22:05:05.699Z,-70.21702
2023-05-25T22:10:06.589Z,-70.96481
2023-05-25T22:15:07.498Z,-71.75634
2023-05-25T22:20:08.658Z,-71.90698
2023-05-25T22:25:09.618Z,-72.11208
2023-05-25T22:30:10.553Z,-72.03383
2023-05-25T22:35:11.451Z,-71.82058
2023-05-25T22:40:12.342Z,-71.81437
2023-05-25T22:45:13.296Z,-71.77266
2023-05-25T22:50:14.169Z,-71.76248
2023-05-25T22:55:15.094Z,-71.72479
2023-05-25T23:00:16.028Z,-72.38422
2023-05-25T23:05:16.992Z,-73.26709
2023-05-25T23:10:17.905Z,-73.33003
2023-05-25T23:15:18.794Z,-73.26659
2023-05-25T23:20:19.758Z,-73.15116
2023-05-25T23:25:20.688Z,-72.97491
2023-05-25T23:30:21.756Z,-72.95372
2023-05-25T23:35:22.706Z,-72.63454
2023-05-25T23:40:23.582Z,-72.93099
2023-05-25T23:45:24.554Z,-72.89571
2023-05-25T23:50:25.612Z,-72.77558
2023-05-25T23:55:26.547Z,-72.86479
